sensor_id;sensor_type;location;lat;lon;timestamp;temperature;humidity
2611;DHT22;5612;51.134;17.058;2022-07-06T00:02:13;17.90;99.90
2611;DHT22;5612;51.134;17.058;2022-07-06T00:04:43;17.90;99.90
2611;DHT22;5612;51.134;17.058;2022-07-06T00:07:12;17.90;99.90
2611;DHT22;5612;51.134;17.058;2022-07-06T00:09:42;17.90;99.90
2611;DHT22;5612;51.134;17.058;2022-07-06T00:12:11;17.80;99.90
2611;DHT22;5612;51.134;17.058;2022-07-06T00:14:42;17.80;99.90
2611;DHT22;5612;51.134;17.058;2022-07-06T00:17:11;17.70;99.90
2611;DHT22;5612;51.134;17.058;2022-07-06T00:19:41;17.70;99.90
2611;DHT22;5612;51.134;17.058;2022-07-06T00:22:10;17.70;99.90
2611;DHT22;5612;51.134;17.058;2022-07-06T00:24:39;17.70;99.90
2611;DHT22;5612;51.134;17.058;2022-07-06T00:27:08;17.60;99.90
2611;DHT22;5612;51.134;17.058;2022-07-06T00:29:37;17.60;99.90
2611;DHT22;5612;51.134;17.058;2022-07-06T00:32:13;17.50;99.90
2611;DHT22;5612;51.134;17.058;2022-07-06T00:34:42;17.60;99.90
2611;DHT22;5612;51.134;17.058;2022-07-06T00:37:11;17.50;99.90
2611;DHT22;5612;51.134;17.058;2022-07-06T00:39:43;17.40;99.90
2611;DHT22;5612;51.134;17.058;2022-07-06T00:42:12;17.40;99.90
2611;DHT22;5612;51.134;17.058;2022-07-06T00:44:40;17.40;99.90
2611;DHT22;5612;51.134;17.058;2022-07-06T00:47:10;17.40;99.90
2611;DHT22;5612;51.134;17.058;2022-07-06T00:49:41;17.30;99.90
2611;DHT22;5612;51.134;17.058;2022-07-06T00:52:28;17.40;99.90
2611;DHT22;5612;51.134;17.058;2022-07-06T00:54:58;17.40;99.90
2611;DHT22;5612;51.134;17.058;2022-07-06T00:57:29;17.40;99.90
2611;DHT22;5612;51.134;17.058;2022-07-06T00:59:59;17.30;99.90
2611;DHT22;5612;51.134;17.058;2022-07-06T01:02:31;17.30;99.90
2611;DHT22;5612;51.134;17.058;2022-07-06T01:05:04;17.10;99.90
2611;DHT22;5612;51.134;17.058;2022-07-06T01:07:35;17.10;99.90
2611;DHT22;5612;51.134;17.058;2022-07-06T01:10:05;17.20;99.90
2611;DHT22;5612;51.134;17.058;2022-07-06T01:12:36;17.30;99.90
2611;DHT22;5612;51.134;17.058;2022-07-06T01:15:08;17.30;99.90
2611;DHT22;5612;51.134;17.058;2022-07-06T01:17:39;17.30;99.90
2611;DHT22;5612;51.134;17.058;2022-07-06T01:20:12;17.20;99.90
2611;DHT22;5612;51.134;17.058;2022-07-06T01:22:42;17.10;99.90
2611;DHT22;5612;51.134;17.058;2022-07-06T01:25:11;17.10;99.90
2611;DHT22;5612;51.134;17.058;2022-07-06T01:27:41;17.00;99.90
2611;DHT22;5612;51.134;17.058;2022-07-06T01:30:12;17.00;99.90
2611;DHT22;5612;51.134;17.058;2022-07-06T01:32:42;17.10;99.90
2611;DHT22;5612;51.134;17.058;2022-07-06T01:35:14;17.10;99.90
2611;DHT22;5612;51.134;17.058;2022-07-06T01:37:43;17.20;99.90
2611;DHT22;5612;51.134;17.058;2022-07-06T01:40:13;17.20;99.90
2611;DHT22;5612;51.134;17.058;2022-07-06T01:42:42;17.20;99.90
2611;DHT22;5612;51.134;17.058;2022-07-06T01:45:11;17.20;99.90
2611;DHT22;5612;51.134;17.058;2022-07-06T01:47:40;17.10;99.90
2611;DHT22;5612;51.134;17.058;2022-07-06T01:50:12;17.00;99.90
2611;DHT22;5612;51.134;17.058;2022-07-06T01:52:42;17.10;99.90
2611;DHT22;5612;51.134;17.058;2022-07-06T01:55:11;17.10;99.90
2611;DHT22;5612;51.134;17.058;2022-07-06T01:57:40;17.10;99.90
2611;DHT22;5612;51.134;17.058;2022-07-06T02:00:10;17.10;99.90
2611;DHT22;5612;51.134;17.058;2022-07-06T02:02:39;17.10;99.90
2611;DHT22;5612;51.134;17.058;2022-07-06T02:05:09;17.10;99.90
2611;DHT22;5612;51.134;17.058;2022-07-06T02:07:40;17.10;99.90
2611;DHT22;5612;51.134;17.058;2022-07-06T02:10:09;17.00;99.90
2611;DHT22;5612;51.134;17.058;2022-07-06T02:12:38;16.90;99.90
2611;DHT22;5612;51.134;17.058;2022-07-06T02:15:08;16.90;99.90
2611;DHT22;5612;51.134;17.058;2022-07-06T02:17:38;16.90;99.90
2611;DHT22;5612;51.134;17.058;2022-07-06T02:20:09;17.00;99.90
2611;DHT22;5612;51.134;17.058;2022-07-06T02:22:40;17.00;99.90
2611;DHT22;5612;51.134;17.058;2022-07-06T02:25:09;17.10;99.90
2611;DHT22;5612;51.134;17.058;2022-07-06T02:27:38;17.10;99.90
2611;DHT22;5612;51.134;17.058;2022-07-06T02:30:08;17.20;99.90
2611;DHT22;5612;51.134;17.058;2022-07-06T02:32:38;17.20;99.90
2611;DHT22;5612;51.134;17.058;2022-07-06T02:35:07;17.20;99.60
2611;DHT22;5612;51.134;17.058;2022-07-06T02:37:37;17.20;93.50
2611;DHT22;5612;51.134;17.058;2022-07-06T02:40:10;17.10;92.60
2611;DHT22;5612;51.134;17.058;2022-07-06T02:42:39;16.90;80.00
2611;DHT22;5612;51.134;17.058;2022-07-06T02:45:10;16.60;85.80
2611;DHT22;5612;51.134;17.058;2022-07-06T02:47:39;16.70;93.80
2611;DHT22;5612;51.134;17.058;2022-07-06T02:50:08;16.80;95.20
2611;DHT22;5612;51.134;17.058;2022-07-06T02:52:38;16.70;83.10
2611;DHT22;5612;51.134;17.058;2022-07-06T02:55:09;16.70;68.40
2611;DHT22;5612;51.134;17.058;2022-07-06T02:57:39;16.70;92.00
2611;DHT22;5612;51.134;17.058;2022-07-06T03:00:09;16.70;99.70
2611;DHT22;5612;51.134;17.058;2022-07-06T03:02:39;16.80;99.90
2611;DHT22;5612;51.134;17.058;2022-07-06T03:05:08;16.90;95.80
2611;DHT22;5612;51.134;17.058;2022-07-06T03:07:37;16.90;99.90
2611;DHT22;5612;51.134;17.058;2022-07-06T03:10:09;17.00;99.90
2611;DHT22;5612;51.134;17.058;2022-07-06T03:12:38;17.10;90.10
2611;DHT22;5612;51.134;17.058;2022-07-06T03:15:08;17.10;77.60
2611;DHT22;5612;51.134;17.058;2022-07-06T03:17:39;17.20;69.80
2611;DHT22;5612;51.134;17.058;2022-07-06T03:20:10;17.30;74.70
2611;DHT22;5612;51.134;17.058;2022-07-06T03:22:40;17.10;54.60
2611;DHT22;5612;51.134;17.058;2022-07-06T03:25:10;17.00;58.90
2611;DHT22;5612;51.134;17.058;2022-07-06T03:27:40;16.80;50.10
2611;DHT22;5612;51.134;17.058;2022-07-06T03:30:10;16.50;57.70
2611;DHT22;5612;51.134;17.058;2022-07-06T03:32:41;16.50;99.90
2611;DHT22;5612;51.134;17.058;2022-07-06T03:35:10;16.60;99.90
2611;DHT22;5612;51.134;17.058;2022-07-06T03:37:39;16.60;99.90
2611;DHT22;5612;51.134;17.058;2022-07-06T03:40:12;16.80;99.90
2611;DHT22;5612;51.134;17.058;2022-07-06T03:42:41;16.90;73.10
2611;DHT22;5612;51.134;17.058;2022-07-06T03:45:10;16.80;62.90
2611;DHT22;5612;51.134;17.058;2022-07-06T03:47:39;16.70;99.10
2611;DHT22;5612;51.134;17.058;2022-07-06T03:50:09;16.60;98.30
2611;DHT22;5612;51.134;17.058;2022-07-06T03:52:38;16.60;99.90
2611;DHT22;5612;51.134;17.058;2022-07-06T03:55:10;16.60;69.60
2611;DHT22;5612;51.134;17.058;2022-07-06T03:57:40;16.60;72.90
2611;DHT22;5612;51.134;17.058;2022-07-06T04:00:11;16.70;82.70
2611;DHT22;5612;51.134;17.058;2022-07-06T04:02:41;16.70;20.20
2611;DHT22;5612;51.134;17.058;2022-07-06T04:05:11;16.80;1.00
2611;DHT22;5612;51.134;17.058;2022-07-06T04:07:40;16.70;1.00
2611;DHT22;5612;51.134;17.058;2022-07-06T04:10:11;16.80;1.00
2611;DHT22;5612;51.134;17.058;2022-07-06T04:12:41;16.80;1.00
2611;DHT22;5612;51.134;17.058;2022-07-06T04:15:11;16.90;1.00
2611;DHT22;5612;51.134;17.058;2022-07-06T04:17:40;16.90;1.00
2611;DHT22;5612;51.134;17.058;2022-07-06T04:20:24;16.80;1.00
2611;DHT22;5612;51.134;17.058;2022-07-06T04:22:54;16.70;1.00
2611;DHT22;5612;51.134;17.058;2022-07-06T04:25:25;16.60;1.00
2611;DHT22;5612;51.134;17.058;2022-07-06T04:27:54;16.50;1.00
2611;DHT22;5612;51.134;17.058;2022-07-06T04:30:23;16.50;1.00
2611;DHT22;5612;51.134;17.058;2022-07-06T04:32:53;16.50;1.00
2611;DHT22;5612;51.134;17.058;2022-07-06T04:35:23;16.50;43.10
2611;DHT22;5612;51.134;17.058;2022-07-06T04:37:52;16.20;99.90
2611;DHT22;5612;51.134;17.058;2022-07-06T04:40:23;15.80;99.90
2611;DHT22;5612;51.134;17.058;2022-07-06T04:42:53;15.60;99.90
2611;DHT22;5612;51.134;17.058;2022-07-06T04:45:22;15.40;99.90
2611;DHT22;5612;51.134;17.058;2022-07-06T04:47:51;15.20;99.90
2611;DHT22;5612;51.134;17.058;2022-07-06T04:50:20;15.20;99.90
2611;DHT22;5612;51.134;17.058;2022-07-06T04:52:49;15.20;99.90
2611;DHT22;5612;51.134;17.058;2022-07-06T04:55:19;15.20;99.90
2611;DHT22;5612;51.134;17.058;2022-07-06T04:57:50;15.20;99.90
2611;DHT22;5612;51.134;17.058;2022-07-06T05:00:20;15.30;99.90
2611;DHT22;5612;51.134;17.058;2022-07-06T05:02:49;15.10;99.90
2611;DHT22;5612;51.134;17.058;2022-07-06T05:05:18;15.10;99.90
2611;DHT22;5612;51.134;17.058;2022-07-06T05:07:47;15.00;99.90
2611;DHT22;5612;51.134;17.058;2022-07-06T05:10:16;15.10;99.90
2611;DHT22;5612;51.134;17.058;2022-07-06T05:12:46;15.10;99.90
2611;DHT22;5612;51.134;17.058;2022-07-06T05:15:18;15.10;99.90
2611;DHT22;5612;51.134;17.058;2022-07-06T05:17:47;15.10;99.90
2611;DHT22;5612;51.134;17.058;2022-07-06T05:20:16;15.30;99.90
2611;DHT22;5612;51.134;17.058;2022-07-06T05:22:46;15.50;99.90
2611;DHT22;5612;51.134;17.058;2022-07-06T05:25:15;15.60;99.90
2611;DHT22;5612;51.134;17.058;2022-07-06T05:27:45;15.70;99.90
2611;DHT22;5612;51.134;17.058;2022-07-06T05:30:14;15.70;99.90
2611;DHT22;5612;51.134;17.058;2022-07-06T05:32:45;15.80;99.90
2611;DHT22;5612;51.134;17.058;2022-07-06T05:35:14;15.90;99.90
2611;DHT22;5612;51.134;17.058;2022-07-06T05:38:03;16.10;99.90
2611;DHT22;5612;51.134;17.058;2022-07-06T05:40:33;16.20;99.90
2611;DHT22;5612;51.134;17.058;2022-07-06T05:43:02;16.30;99.90
2611;DHT22;5612;51.134;17.058;2022-07-06T05:45:32;16.50;99.90
2611;DHT22;5612;51.134;17.058;2022-07-06T05:48:04;16.70;99.90
2611;DHT22;5612;51.134;17.058;2022-07-06T05:50:50;16.80;99.90
2611;DHT22;5612;51.134;17.058;2022-07-06T05:53:20;16.90;99.90
2611;DHT22;5612;51.134;17.058;2022-07-06T05:55:49;17.00;99.90
2611;DHT22;5612;51.134;17.058;2022-07-06T05:58:18;17.00;99.90
2611;DHT22;5612;51.134;17.058;2022-07-06T06:00:48;17.10;99.90
2611;DHT22;5612;51.134;17.058;2022-07-06T06:03:19;17.10;99.90
2611;DHT22;5612;51.134;17.058;2022-07-06T06:05:49;17.00;99.90
2611;DHT22;5612;51.134;17.058;2022-07-06T06:08:18;17.20;99.90
2611;DHT22;5612;51.134;17.058;2022-07-06T06:10:48;17.10;99.90
2611;DHT22;5612;51.134;17.058;2022-07-06T06:13:17;17.20;99.90
2611;DHT22;5612;51.134;17.058;2022-07-06T06:15:46;17.40;99.90
2611;DHT22;5612;51.134;17.058;2022-07-06T06:18:16;17.50;99.90
2611;DHT22;5612;51.134;17.058;2022-07-06T06:20:48;17.50;99.90
2611;DHT22;5612;51.134;17.058;2022-07-06T06:23:18;17.70;99.90
2611;DHT22;5612;51.134;17.058;2022-07-06T06:25:47;17.80;99.90
2611;DHT22;5612;51.134;17.058;2022-07-06T06:28:16;17.90;99.90
2611;DHT22;5612;51.134;17.058;2022-07-06T06:30:45;17.90;99.90
2611;DHT22;5612;51.134;17.058;2022-07-06T06:33:18;17.80;99.90
2611;DHT22;5612;51.134;17.058;2022-07-06T06:35:50;17.90;99.90
2611;DHT22;5612;51.134;17.058;2022-07-06T06:38:21;18.20;99.90
2611;DHT22;5612;51.134;17.058;2022-07-06T06:40:55;18.30;99.90
2611;DHT22;5612;51.134;17.058;2022-07-06T06:43:25;18.30;99.90
2611;DHT22;5612;51.134;17.058;2022-07-06T06:45:54;18.50;99.90
2611;DHT22;5612;51.134;17.058;2022-07-06T06:48:24;18.50;99.90
2611;DHT22;5612;51.134;17.058;2022-07-06T06:50:55;18.60;99.90
2611;DHT22;5612;51.134;17.058;2022-07-06T06:53:24;18.60;99.90
2611;DHT22;5612;51.134;17.058;2022-07-06T06:55:53;18.70;99.90
2611;DHT22;5612;51.134;17.058;2022-07-06T06:58:23;18.80;99.90
2611;DHT22;5612;51.134;17.058;2022-07-06T07:00:53;18.90;99.90
2611;DHT22;5612;51.134;17.058;2022-07-06T07:03:22;19.10;99.90
2611;DHT22;5612;51.134;17.058;2022-07-06T07:05:52;19.40;99.90
2611;DHT22;5612;51.134;17.058;2022-07-06T07:08:24;20.10;97.30
2611;DHT22;5612;51.134;17.058;2022-07-06T07:10:54;20.90;42.10
2611;DHT22;5612;51.134;17.058;2022-07-06T07:13:25;21.70;1.00
2611;DHT22;5612;51.134;17.058;2022-07-06T07:15:55;21.80;1.00
2611;DHT22;5612;51.134;17.058;2022-07-06T07:18:25;21.90;1.00
2611;DHT22;5612;51.134;17.058;2022-07-06T07:20:55;22.60;99.90
2611;DHT22;5612;51.134;17.058;2022-07-06T07:23:26;23.60;99.90
2611;DHT22;5612;51.134;17.058;2022-07-06T07:25:56;24.40;99.90
2611;DHT22;5612;51.134;17.058;2022-07-06T07:28:25;25.30;59.60
2611;DHT22;5612;51.134;17.058;2022-07-06T07:30:55;26.20;29.10
2611;DHT22;5612;51.134;17.058;2022-07-06T07:33:24;26.40;1.00
2611;DHT22;5612;51.134;17.058;2022-07-06T07:35:53;26.50;1.00
2611;DHT22;5612;51.134;17.058;2022-07-06T07:38:24;26.30;1.00
2611;DHT22;5612;51.134;17.058;2022-07-06T07:40:54;26.40;1.00
2611;DHT22;5612;51.134;17.058;2022-07-06T07:43:24;26.20;1.00
2611;DHT22;5612;51.134;17.058;2022-07-06T07:45:53;26.30;1.00
2611;DHT22;5612;51.134;17.058;2022-07-06T07:48:23;26.70;1.00
2611;DHT22;5612;51.134;17.058;2022-07-06T07:50:53;27.70;1.00
2611;DHT22;5612;51.134;17.058;2022-07-06T07:53:25;28.30;1.00
2611;DHT22;5612;51.134;17.058;2022-07-06T07:55:55;28.90;1.00
2611;DHT22;5612;51.134;17.058;2022-07-06T07:58:24;29.70;1.00
2611;DHT22;5612;51.134;17.058;2022-07-06T08:00:54;30.30;1.00
2611;DHT22;5612;51.134;17.058;2022-07-06T08:03:24;29.80;1.00
2611;DHT22;5612;51.134;17.058;2022-07-06T08:05:53;30.00;1.00
2611;DHT22;5612;51.134;17.058;2022-07-06T08:08:22;30.40;1.00
2611;DHT22;5612;51.134;17.058;2022-07-06T08:10:54;30.30;1.00
2611;DHT22;5612;51.134;17.058;2022-07-06T08:13:43;30.10;1.00
2611;DHT22;5612;51.134;17.058;2022-07-06T08:16:13;29.60;1.00
2611;DHT22;5612;51.134;17.058;2022-07-06T08:18:52;29.50;1.00
2611;DHT22;5612;51.134;17.058;2022-07-06T08:21:24;30.10;1.00
2611;DHT22;5612;51.134;17.058;2022-07-06T08:23:55;30.80;1.00
2611;DHT22;5612;51.134;17.058;2022-07-06T08:26:27;30.60;1.00
2611;DHT22;5612;51.134;17.058;2022-07-06T08:28:58;30.80;1.00
2611;DHT22;5612;51.134;17.058;2022-07-06T08:31:28;31.60;1.00
2611;DHT22;5612;51.134;17.058;2022-07-06T08:34:18;32.20;1.00
2611;DHT22;5612;51.134;17.058;2022-07-06T08:36:47;32.30;1.00
2611;DHT22;5612;51.134;17.058;2022-07-06T08:39:16;33.20;1.00
2611;DHT22;5612;51.134;17.058;2022-07-06T08:41:48;33.70;1.00
2611;DHT22;5612;51.134;17.058;2022-07-06T08:44:18;34.20;1.00
2611;DHT22;5612;51.134;17.058;2022-07-06T08:46:49;35.20;1.00
2611;DHT22;5612;51.134;17.058;2022-07-06T08:49:21;35.30;1.00
2611;DHT22;5612;51.134;17.058;2022-07-06T08:51:51;34.90;1.00
2611;DHT22;5612;51.134;17.058;2022-07-06T08:54:21;35.10;1.00
2611;DHT22;5612;51.134;17.058;2022-07-06T08:56:53;34.80;1.00
2611;DHT22;5612;51.134;17.058;2022-07-06T08:59:24;35.50;1.00
2611;DHT22;5612;51.134;17.058;2022-07-06T09:01:54;35.80;1.00
2611;DHT22;5612;51.134;17.058;2022-07-06T09:04:25;36.40;1.00
2611;DHT22;5612;51.134;17.058;2022-07-06T09:06:55;36.80;1.00
2611;DHT22;5612;51.134;17.058;2022-07-06T09:09:25;36.40;1.00
2611;DHT22;5612;51.134;17.058;2022-07-06T09:11:57;36.40;1.00
2611;DHT22;5612;51.134;17.058;2022-07-06T09:14:30;36.30;1.00
2611;DHT22;5612;51.134;17.058;2022-07-06T09:17:03;36.60;1.00
2611;DHT22;5612;51.134;17.058;2022-07-06T09:19:45;37.00;1.00
2611;DHT22;5612;51.134;17.058;2022-07-06T09:22:26;37.30;1.00
2611;DHT22;5612;51.134;17.058;2022-07-06T09:25:03;37.30;1.00
2611;DHT22;5612;51.134;17.058;2022-07-06T09:27:39;37.70;1.00
2611;DHT22;5612;51.134;17.058;2022-07-06T09:30:11;38.40;1.00
2611;DHT22;5612;51.134;17.058;2022-07-06T09:32:46;39.20;1.00
2611;DHT22;5612;51.134;17.058;2022-07-06T09:35:22;39.10;1.00
2611;DHT22;5612;51.134;17.058;2022-07-06T09:38:03;38.20;1.00
2611;DHT22;5612;51.134;17.058;2022-07-06T09:40:35;38.50;1.00
2611;DHT22;5612;51.134;17.058;2022-07-06T09:43:15;39.00;1.00
2611;DHT22;5612;51.134;17.058;2022-07-06T09:45:49;38.30;1.00
2611;DHT22;5612;51.134;17.058;2022-07-06T09:48:20;38.40;1.00
2611;DHT22;5612;51.134;17.058;2022-07-06T09:50:52;38.30;1.00
2611;DHT22;5612;51.134;17.058;2022-07-06T09:53:22;39.30;1.00
2611;DHT22;5612;51.134;17.058;2022-07-06T09:55:54;38.40;1.00
2611;DHT22;5612;51.134;17.058;2022-07-06T09:58:27;37.20;1.00
2611;DHT22;5612;51.134;17.058;2022-07-06T10:01:28;37.60;1.00
2611;DHT22;5612;51.134;17.058;2022-07-06T10:03:58;38.10;1.00
2611;DHT22;5612;51.134;17.058;2022-07-06T10:06:27;38.30;1.00
2611;DHT22;5612;51.134;17.058;2022-07-06T10:08:58;38.60;1.00
2611;DHT22;5612;51.134;17.058;2022-07-06T10:11:29;39.20;1.00
2611;DHT22;5612;51.134;17.058;2022-07-06T10:14:01;40.40;1.00
2611;DHT22;5612;51.134;17.058;2022-07-06T10:16:35;41.30;1.00
2611;DHT22;5612;51.134;17.058;2022-07-06T10:19:07;40.30;1.00
2611;DHT22;5612;51.134;17.058;2022-07-06T10:21:39;39.50;1.00
2611;DHT22;5612;51.134;17.058;2022-07-06T10:24:09;40.40;1.00
2611;DHT22;5612;51.134;17.058;2022-07-06T10:26:41;40.90;1.00
2611;DHT22;5612;51.134;17.058;2022-07-06T10:29:13;41.50;1.00
2611;DHT22;5612;51.134;17.058;2022-07-06T10:31:45;41.20;1.00
2611;DHT22;5612;51.134;17.058;2022-07-06T10:34:16;40.60;1.00
2611;DHT22;5612;51.134;17.058;2022-07-06T10:36:50;40.80;1.00
2611;DHT22;5612;51.134;17.058;2022-07-06T10:39:32;40.20;1.00
2611;DHT22;5612;51.134;17.058;2022-07-06T10:42:42;41.60;1.00
2611;DHT22;5612;51.134;17.058;2022-07-06T10:45:16;39.80;1.00
2611;DHT22;5612;51.134;17.058;2022-07-06T10:48:17;38.40;1.00
2611;DHT22;5612;51.134;17.058;2022-07-06T10:50:54;35.60;1.00
2611;DHT22;5612;51.134;17.058;2022-07-06T10:53:25;33.80;1.00
2611;DHT22;5612;51.134;17.058;2022-07-06T10:55:56;33.20;1.00
2611;DHT22;5612;51.134;17.058;2022-07-06T10:58:41;32.60;1.00
2611;DHT22;5612;51.134;17.058;2022-07-06T11:01:13;33.00;1.00
2611;DHT22;5612;51.134;17.058;2022-07-06T11:03:44;33.30;1.00
2611;DHT22;5612;51.134;17.058;2022-07-06T11:06:16;32.80;1.00
2611;DHT22;5612;51.134;17.058;2022-07-06T11:08:48;32.10;1.00
2611;DHT22;5612;51.134;17.058;2022-07-06T11:11:20;31.80;1.00
2611;DHT22;5612;51.134;17.058;2022-07-06T11:13:56;30.90;1.00
2611;DHT22;5612;51.134;17.058;2022-07-06T11:16:29;30.30;1.00
2611;DHT22;5612;51.134;17.058;2022-07-06T11:19:08;29.60;1.00
2611;DHT22;5612;51.134;17.058;2022-07-06T11:21:40;28.80;1.00
2611;DHT22;5612;51.134;17.058;2022-07-06T11:24:13;28.20;1.00
2611;DHT22;5612;51.134;17.058;2022-07-06T11:26:45;28.10;1.00
2611;DHT22;5612;51.134;17.058;2022-07-06T11:29:16;28.00;1.00
2611;DHT22;5612;51.134;17.058;2022-07-06T11:31:50;27.60;1.00
2611;DHT22;5612;51.134;17.058;2022-07-06T11:34:23;27.60;1.00
2611;DHT22;5612;51.134;17.058;2022-07-06T11:36:55;28.50;1.00
2611;DHT22;5612;51.134;17.058;2022-07-06T11:39:26;30.80;1.00
2611;DHT22;5612;51.134;17.058;2022-07-06T11:41:58;31.90;1.00
2611;DHT22;5612;51.134;17.058;2022-07-06T11:44:28;33.20;1.00
2611;DHT22;5612;51.134;17.058;2022-07-06T11:46:59;34.60;1.00
2611;DHT22;5612;51.134;17.058;2022-07-06T11:49:31;35.80;1.00
2611;DHT22;5612;51.134;17.058;2022-07-06T11:52:07;36.60;1.00
2611;DHT22;5612;51.134;17.058;2022-07-06T11:54:38;36.90;1.00
2611;DHT22;5612;51.134;17.058;2022-07-06T11:57:10;35.60;1.00
2611;DHT22;5612;51.134;17.058;2022-07-06T11:59:41;34.40;1.00
2611;DHT22;5612;51.134;17.058;2022-07-06T12:02:16;34.50;1.00
2611;DHT22;5612;51.134;17.058;2022-07-06T12:04:46;35.50;1.00
2611;DHT22;5612;51.134;17.058;2022-07-06T12:07:17;36.00;1.00
2611;DHT22;5612;51.134;17.058;2022-07-06T12:09:47;35.90;1.00
2611;DHT22;5612;51.134;17.058;2022-07-06T12:12:17;37.10;1.00
2611;DHT22;5612;51.134;17.058;2022-07-06T12:14:46;38.30;1.00
2611;DHT22;5612;51.134;17.058;2022-07-06T12:17:17;39.20;1.00
2611;DHT22;5612;51.134;17.058;2022-07-06T12:19:53;38.80;1.00
2611;DHT22;5612;51.134;17.058;2022-07-06T12:22:25;39.60;1.00
2611;DHT22;5612;51.134;17.058;2022-07-06T12:24:54;38.60;1.00
2611;DHT22;5612;51.134;17.058;2022-07-06T12:27:33;37.00;1.00
2611;DHT22;5612;51.134;17.058;2022-07-06T12:30:09;34.30;1.00
2611;DHT22;5612;51.134;17.058;2022-07-06T12:33:12;32.90;1.00
2611;DHT22;5612;51.134;17.058;2022-07-06T12:35:42;33.70;1.00
2611;DHT22;5612;51.134;17.058;2022-07-06T12:38:12;34.90;1.00
2611;DHT22;5612;51.134;17.058;2022-07-06T12:40:51;35.50;1.00
2611;DHT22;5612;51.134;17.058;2022-07-06T12:43:40;34.60;1.00
2611;DHT22;5612;51.134;17.058;2022-07-06T12:46:30;34.10;1.00
2611;DHT22;5612;51.134;17.058;2022-07-06T12:49:13;33.20;1.00
2611;DHT22;5612;51.134;17.058;2022-07-06T12:51:59;33.80;1.00
2611;DHT22;5612;51.134;17.058;2022-07-06T12:54:31;35.60;1.00
2611;DHT22;5612;51.134;17.058;2022-07-06T12:57:13;36.10;1.00
2611;DHT22;5612;51.134;17.058;2022-07-06T12:59:44;35.00;1.00
2611;DHT22;5612;51.134;17.058;2022-07-06T13:02:19;33.80;1.00
2611;DHT22;5612;51.134;17.058;2022-07-06T13:05:12;32.80;1.00
2611;DHT22;5612;51.134;17.058;2022-07-06T13:07:45;31.80;1.00
2611;DHT22;5612;51.134;17.058;2022-07-06T13:10:16;31.00;1.00
2611;DHT22;5612;51.134;17.058;2022-07-06T13:12:46;30.40;1.00
2611;DHT22;5612;51.134;17.058;2022-07-06T13:15:16;29.70;1.00
2611;DHT22;5612;51.134;17.058;2022-07-06T13:17:47;29.30;1.00
2611;DHT22;5612;51.134;17.058;2022-07-06T13:20:18;28.50;1.00
2611;DHT22;5612;51.134;17.058;2022-07-06T13:22:48;28.20;1.00
2611;DHT22;5612;51.134;17.058;2022-07-06T13:25:18;28.50;1.00
2611;DHT22;5612;51.134;17.058;2022-07-06T13:27:47;29.80;1.00
2611;DHT22;5612;51.134;17.058;2022-07-06T13:30:17;31.80;1.00
2611;DHT22;5612;51.134;17.058;2022-07-06T13:32:47;33.60;1.00
2611;DHT22;5612;51.134;17.058;2022-07-06T13:35:18;34.90;1.00
2611;DHT22;5612;51.134;17.058;2022-07-06T13:37:47;34.50;1.00
2611;DHT22;5612;51.134;17.058;2022-07-06T13:40:18;32.60;1.00
2611;DHT22;5612;51.134;17.058;2022-07-06T13:42:49;31.30;1.00
2611;DHT22;5612;51.134;17.058;2022-07-06T13:45:19;30.20;1.00
2611;DHT22;5612;51.134;17.058;2022-07-06T13:47:49;30.00;1.00
2611;DHT22;5612;51.134;17.058;2022-07-06T13:50:20;29.50;1.00
2611;DHT22;5612;51.134;17.058;2022-07-06T13:52:50;30.30;1.00
2611;DHT22;5612;51.134;17.058;2022-07-06T13:55:19;31.90;1.00
2611;DHT22;5612;51.134;17.058;2022-07-06T13:57:48;32.80;1.00
2611;DHT22;5612;51.134;17.058;2022-07-06T14:00:18;33.40;1.00
2611;DHT22;5612;51.134;17.058;2022-07-06T14:02:47;32.00;1.00
2611;DHT22;5612;51.134;17.058;2022-07-06T14:05:19;31.50;1.00
2611;DHT22;5612;51.134;17.058;2022-07-06T14:07:51;31.30;1.00
2611;DHT22;5612;51.134;17.058;2022-07-06T14:10:23;31.20;1.00
2611;DHT22;5612;51.134;17.058;2022-07-06T14:12:52;32.10;1.00
2611;DHT22;5612;51.134;17.058;2022-07-06T14:15:22;32.10;1.00
2611;DHT22;5612;51.134;17.058;2022-07-06T14:17:51;31.50;1.00
2611;DHT22;5612;51.134;17.058;2022-07-06T14:20:22;30.90;1.00
2611;DHT22;5612;51.134;17.058;2022-07-06T14:22:52;30.30;1.00
2611;DHT22;5612;51.134;17.058;2022-07-06T14:25:22;29.40;1.00
2611;DHT22;5612;51.134;17.058;2022-07-06T14:27:51;29.00;1.00
2611;DHT22;5612;51.134;17.058;2022-07-06T14:30:21;28.50;1.00
2611;DHT22;5612;51.134;17.058;2022-07-06T14:32:50;28.50;1.00
2611;DHT22;5612;51.134;17.058;2022-07-06T14:35:22;28.30;1.00
2611;DHT22;5612;51.134;17.058;2022-07-06T14:37:52;27.60;1.00
2611;DHT22;5612;51.134;17.058;2022-07-06T14:40:22;27.80;1.00
2611;DHT22;5612;51.134;17.058;2022-07-06T14:42:51;28.20;1.00
2611;DHT22;5612;51.134;17.058;2022-07-06T14:45:20;28.40;1.00
2611;DHT22;5612;51.134;17.058;2022-07-06T14:47:49;28.80;1.00
2611;DHT22;5612;51.134;17.058;2022-07-06T14:50:22;29.90;1.00
2611;DHT22;5612;51.134;17.058;2022-07-06T14:52:53;30.90;1.00
2611;DHT22;5612;51.134;17.058;2022-07-06T14:55:22;30.20;1.00
2611;DHT22;5612;51.134;17.058;2022-07-06T14:57:52;29.10;1.00
2611;DHT22;5612;51.134;17.058;2022-07-06T15:00:22;28.30;1.00
2611;DHT22;5612;51.134;17.058;2022-07-06T15:02:52;28.20;1.00
2611;DHT22;5612;51.134;17.058;2022-07-06T15:05:24;28.40;1.00
2611;DHT22;5612;51.134;17.058;2022-07-06T15:07:54;28.50;1.00
2611;DHT22;5612;51.134;17.058;2022-07-06T15:10:23;28.40;1.00
2611;DHT22;5612;51.134;17.058;2022-07-06T15:12:53;27.40;1.00
2611;DHT22;5612;51.134;17.058;2022-07-06T15:15:22;27.20;1.00
2611;DHT22;5612;51.134;17.058;2022-07-06T15:18:11;27.10;1.00
2611;DHT22;5612;51.134;17.058;2022-07-06T15:20:42;27.00;1.00
2611;DHT22;5612;51.134;17.058;2022-07-06T15:23:14;27.10;1.00
2611;DHT22;5612;51.134;17.058;2022-07-06T15:25:44;27.10;1.00
2611;DHT22;5612;51.134;17.058;2022-07-06T15:28:22;27.20;1.00
2611;DHT22;5612;51.134;17.058;2022-07-06T15:30:55;26.80;1.00
2611;DHT22;5612;51.134;17.058;2022-07-06T15:33:24;26.50;1.00
2611;DHT22;5612;51.134;17.058;2022-07-06T15:35:57;26.30;1.00
2611;DHT22;5612;51.134;17.058;2022-07-06T15:38:26;26.50;1.00
2611;DHT22;5612;51.134;17.058;2022-07-06T15:40:56;27.00;1.00
2611;DHT22;5612;51.134;17.058;2022-07-06T15:43:29;27.00;1.00
2611;DHT22;5612;51.134;17.058;2022-07-06T15:46:00;26.90;1.00
2611;DHT22;5612;51.134;17.058;2022-07-06T15:48:31;26.70;1.00
2611;DHT22;5612;51.134;17.058;2022-07-06T15:51:03;26.50;1.00
2611;DHT22;5612;51.134;17.058;2022-07-06T15:53:33;26.40;1.00
2611;DHT22;5612;51.134;17.058;2022-07-06T15:56:03;26.30;1.00
2611;DHT22;5612;51.134;17.058;2022-07-06T15:58:33;26.00;1.00
2611;DHT22;5612;51.134;17.058;2022-07-06T16:01:03;25.70;1.00
2611;DHT22;5612;51.134;17.058;2022-07-06T16:03:33;25.70;1.00
2611;DHT22;5612;51.134;17.058;2022-07-06T16:06:07;25.70;1.00
2611;DHT22;5612;51.134;17.058;2022-07-06T16:08:38;25.70;1.00
2611;DHT22;5612;51.134;17.058;2022-07-06T16:11:11;25.60;1.00
2611;DHT22;5612;51.134;17.058;2022-07-06T16:13:41;25.50;1.00
2611;DHT22;5612;51.134;17.058;2022-07-06T16:16:14;25.20;1.00
2611;DHT22;5612;51.134;17.058;2022-07-06T16:18:44;25.30;1.00
2611;DHT22;5612;51.134;17.058;2022-07-06T16:21:15;25.20;1.00
2611;DHT22;5612;51.134;17.058;2022-07-06T16:23:44;24.90;1.00